Time;durP1;ratioP1;P1;durP2;ratioP2;P2;SDS_P1;SDS_P2;PMS_P1;PMS_P2;Temp;Humidity;BMP_temperature;BMP_pressure;BME280_temperature;BME280_humidity;BME280_pressure;Samples;Min_cycle;Max_cycle;Signal;HPM_P1;HPM_P2
2022/07/15 00:00:15;;;;;;;4.53;1.73;;;13.00;99.90;;;13.62;92.49;98658.13;5000603;28;119669;-74
2022/07/15 00:02:43;;;;;;;8.60;1.77;;;12.90;99.90;;;13.60;92.37;98670.53;5001192;28;120074;-74
2022/07/15 00:05:13;;;;;;;4.07;1.63;;;12.80;99.90;;;13.58;92.98;98667.38;5000534;28;129729;-73
2022/07/15 00:07:42;;;;;;;6.65;1.67;;;12.70;99.90;;;13.57;94.30;98671.22;4999861;28;129270;-73
2022/07/15 00:10:18;;;;;;;7.88;2.42;;;12.70;99.90;;;13.53;94.83;98673.88;5001093;28;119903;-73
2022/07/15 00:12:50;;;;;;;5.95;1.70;;;12.70;99.90;;;13.47;94.88;98686.19;5001650;28;119361;-74
2022/07/15 00:15:21;;;;;;;6.00;1.60;;;12.80;99.90;;;13.51;94.41;98700.69;4986022;28;128969;-74
2022/07/15 00:17:50;;;;;;;7.20;1.52;;;12.80;99.90;;;13.50;95.31;98699.09;4969569;28;128564;-74
2022/07/15 00:20:22;;;;;;;6.15;2.10;;;12.90;99.90;;;13.55;94.89;98696.09;4999653;28;122659;-73
2022/07/15 00:22:51;;;;;;;3.85;1.60;;;12.90;99.90;;;13.57;94.39;98685.66;4983300;28;122535;-74
2022/07/15 00:25:19;;;;;;;3.55;1.42;;;12.90;99.90;;;13.59;94.26;98686.09;5000427;28;130314;-75
2022/07/15 00:27:56;;;;;;;6.47;1.85;;;13.00;99.90;;;13.61;93.76;98683.81;5000518;28;129678;-74
2022/07/15 00:30:30;;;;;;;4.72;1.65;;;12.90;99.90;;;13.62;94.26;98690.84;4982780;28;119495;-73
2022/07/15 00:33:00;;;;;;;6.10;2.42;;;13.00;99.90;;;13.65;93.30;98690.16;5000674;28;119378;-73
2022/07/15 00:35:31;;;;;;;5.78;1.83;;;13.00;99.90;;;13.68;94.76;98696.03;5000017;28;130352;-73
2022/07/15 00:38:00;;;;;;;4.43;1.95;;;13.00;99.90;;;13.71;92.66;98706.22;5000566;28;130268;-74
2022/07/15 00:40:29;;;;;;;8.05;2.22;;;13.10;99.90;;;13.73;91.45;98695.75;4982730;28;120410;-74
2022/07/15 00:42:58;;;;;;;3.92;1.40;;;13.20;99.90;;;13.78;91.05;98698.25;4985953;28;118273;-74
2022/07/15 00:45:27;;;;;;;6.00;2.42;;;13.20;99.90;;;13.81;90.59;98708.44;4999027;28;129977;-73
2022/07/15 00:47:58;;;;;;;4.60;1.58;;;13.20;99.90;;;13.83;89.70;98700.69;4985475;28;128640;-75
2022/07/15 00:50:31;;;;;;;5.50;1.70;;;13.30;99.90;;;13.86;89.63;98704.66;5000650;28;119335;-74
2022/07/15 00:53:05;;;;;;;6.53;1.83;;;13.30;99.90;;;13.88;89.42;98719.50;5002333;28;118507;-74
2022/07/15 00:55:39;;;;;;;5.90;1.70;;;13.40;99.90;;;13.90;89.30;98728.16;5000546;28;130632;-74
2022/07/15 00:58:12;;;;;;;6.47;2.20;;;13.50;99.90;;;13.93;89.80;98727.44;5000167;28;129552;-75
2022/07/15 01:00:41;;;;;;;6.13;1.77;;;13.50;99.90;;;13.95;90.39;98741.50;4999261;28;120544;-73
2022/07/15 01:03:10;;;;;;;6.47;2.20;;;13.40;99.90;;;13.94;89.94;98739.91;4999492;28;119540;-73
2022/07/15 01:05:41;;;;;;;4.70;1.80;;;13.50;99.90;;;13.95;89.77;98733.31;5001260;28;129866;-74
2022/07/15 01:08:10;;;;;;;5.63;1.50;;;13.50;99.90;;;13.96;89.59;98721.28;4998908;28;130011;-74
2022/07/15 01:10:41;;;;;;;5.00;1.60;;;13.40;99.90;;;13.99;89.44;98704.22;4999027;28;122035;-75
2022/07/15 01:13:10;;;;;;;5.00;1.70;;;13.40;99.90;;;13.98;89.09;98694.44;4982233;28;122010;-74
2022/07/15 01:15:38;;;;;;;4.82;1.58;;;13.30;99.90;;;13.98;88.97;98708.06;4985247;28;130396;-76
2022/07/15 01:18:07;;;;;;;5.88;1.98;;;13.30;99.90;;;14.00;89.26;98716.69;4981687;28;129030;-74
2022/07/15 01:20:43;;;;;;;8.75;2.60;;;13.30;99.90;;;13.99;89.05;98715.13;4985547;28;119977;-73
2022/07/15 01:23:12;;;;;;;7.93;2.08;;;13.30;99.90;;;13.94;88.35;98718.09;4981951;28;119383;-72
2022/07/15 01:26:14;;;;;;;5.70;1.52;;;13.50;99.90;;;13.93;88.79;98707.53;4991882;28;129877;-74
2022/07/15 01:28:45;;;;;;;5.00;1.65;;;13.50;99.90;;;13.95;88.97;98692.41;4968694;28;128926;-73
2022/07/15 01:31:15;;;;;;;9.38;1.90;;;13.50;99.90;;;13.94;88.86;98712.63;4985391;28;118801;-74
2022/07/15 01:33:45;;;;;;;4.55;1.60;;;13.40;99.90;;;13.92;89.07;98709.47;5001786;28;118808;-74
2022/07/15 01:36:15;;;;;;;4.93;1.60;;;13.40;99.90;;;13.92;88.99;98693.13;4999807;28;129673;-74
2022/07/15 01:38:50;;;;;;;4.65;1.42;;;13.40;99.90;;;13.93;88.44;98705.63;4999439;28;129825;-73
2022/07/15 01:41:19;;;;;;;6.55;1.58;;;13.40;99.90;;;13.91;88.42;98702.44;4999806;28;119489;-75
2022/07/15 01:43:48;;;;;;;4.78;1.80;;;13.40;99.90;;;13.90;88.80;98700.88;4984973;28;118512;-74
2022/07/15 01:46:17;;;;;;;4.68;1.70;;;13.40;99.90;;;13.93;88.43;98702.91;4967543;28;129689;-74
2022/07/15 01:51:50;;;;;;;5.60;1.60;;;13.30;99.90;;;13.96;87.98;98693.19;4982091;28;119466;-74
2022/07/15 01:54:19;;;;;;;8.00;2.03;;;13.30;99.90;;;13.93;88.07;98692.00;4985341;28;119116;-74
2022/07/15 01:56:49;;;;;;;6.15;1.90;;;13.40;99.90;;;13.93;88.10;98683.81;4983868;28;129962;-74
2022/07/15 01:59:19;;;;;;;6.40;2.42;;;13.40;99.90;;;13.92;88.47;98668.56;4965047;28;129021;-74
2022/07/15 02:01:48;;;;;;;4.63;1.50;;;13.40;99.90;;;13.97;88.05;98672.97;4977058;28;122208;-73
2022/07/15 02:04:18;;;;;;;5.50;1.60;;;13.30;99.90;;;13.96;87.98;98669.47;4950866;28;122085;-73
2022/07/15 02:06:49;;;;;;;4.78;1.58;;;13.30;99.90;;;13.95;88.03;98673.31;4956821;28;130336;-73
2022/07/15 02:09:19;;;;;;;5.68;1.48;;;13.40;99.90;;;13.95;88.01;98670.59;4961396;28;130461;-72
2022/07/15 02:11:51;;;;;;;7.00;1.90;;;13.40;99.90;;;13.96;88.13;98666.72;4964894;28;119351;-73
2022/07/15 02:14:22;;;;;;;4.70;1.40;;;13.40;99.90;;;13.94;87.99;98660.81;4964737;28;118122;-73
2022/07/15 02:16:51;;;;;;;8.45;1.73;;;13.50;99.90;;;13.96;88.68;98661.28;4980945;28;130162;-72
2022/07/15 02:19:30;;;;;;;6.55;1.65;;;13.40;99.90;;;13.93;88.29;98656.53;4978136;28;130225;-73
2022/07/15 02:22:00;;;;;;;8.70;1.80;;;13.40;99.90;;;13.93;88.38;98661.16;4981331;28;119117;-72
2022/07/15 02:24:31;;;;;;;6.50;1.70;;;13.40;99.90;;;13.92;88.20;98663.13;4948856;28;118876;-74
2022/07/15 02:27:00;;;;;;;4.40;1.70;;;13.40;99.90;;;13.91;87.92;98658.81;4963251;28;129010;-74
2022/07/15 02:29:29;;;;;;;4.88;1.55;;;13.50;99.90;;;13.90;88.80;98662.69;4981638;28;129064;-73
2022/07/15 02:31:58;;;;;;;4.93;1.70;;;13.40;99.90;;;13.92;88.90;98674.03;4981333;28;119670;-73
2022/07/15 02:34:26;;;;;;;6.93;1.80;;;13.40;99.90;;;13.97;88.87;98672.97;4968295;28;119252;-73
2022/07/15 02:36:55;;;;;;;5.25;1.65;;;13.40;99.90;;;13.98;88.68;98664.44;4967519;28;129450;-73
2022/07/15 02:39:25;;;;;;;8.18;1.85;;;13.40;99.90;;;14.00;88.51;98659.41;4973735;28;130226;-74
2022/07/15 02:41:57;;;;;;;9.18;1.77;;;13.40;99.90;;;14.01;88.60;98662.94;4964668;28;119908;-72
2022/07/15 02:44:25;;;;;;;9.10;1.70;;;13.40;99.90;;;14.06;88.95;98675.53;4985181;28;119013;-74
2022/07/15 02:46:54;;;;;;;9.25;1.98;;;13.40;99.90;;;14.01;88.71;98669.19;4967701;28;128966;-72
2022/07/15 02:49:27;;;;;;;6.18;2.10;;;13.40;99.90;;;14.04;88.36;98673.16;4967079;28;129280;-75
2022/07/15 02:51:55;;;;;;;4.95;1.77;;;13.40;99.90;;;14.06;88.07;98670.06;4966181;28;121292;-73
2022/07/15 02:54:29;;;;;;;5.95;1.80;;;13.50;99.90;;;14.09;88.45;98677.53;4967752;28;121824;-74
2022/07/15 02:56:57;;;;;;;7.95;1.60;;;13.50;99.90;;;14.12;87.68;98668.66;5015301;28;130591;-73
2022/07/15 02:59:29;;;;;;;5.45;1.70;;;13.50;99.90;;;14.17;87.54;98676.53;5017385;28;129638;-73
2022/07/15 03:02:00;;;;;;;6.93;1.73;;;13.50;99.90;;;14.18;87.30;98678.91;5004037;28;118974;-73
2022/07/15 03:04:29;;;;;;;8.25;1.85;;;13.50;99.90;;;14.20;87.13;98687.53;5004135;28;118598;-72
2022/07/15 03:06:58;;;;;;;8.63;1.85;;;13.50;99.90;;;14.22;87.40;98683.66;5000686;28;130547;-72
2022/07/15 03:09:28;;;;;;;5.05;1.70;;;13.60;99.90;;;14.23;87.06;98687.97;5002265;28;129944;-73
2022/07/15 03:11:57;;;;;;;5.03;1.83;;;13.60;99.90;;;14.25;87.03;98686.47;5017562;28;119452;-74
2022/07/15 03:14:27;;;;;;;7.03;1.90;;;13.60;99.90;;;14.27;87.53;98686.88;4987095;28;118849;-74
2022/07/15 03:16:55;;;;;;;8.35;2.05;;;13.60;99.90;;;14.26;87.95;98681.78;5000352;28;130132;-73
2022/07/15 03:19:24;;;;;;;6.78;2.10;;;13.70;99.90;;;14.27;87.69;98684.16;5020299;28;129131;-74
2022/07/15 03:21:53;;;;;;;5.80;2.10;;;13.70;99.90;;;14.29;88.04;98683.81;5017615;28;120256;-73
2022/07/15 03:24:24;;;;;;;4.55;1.58;;;13.70;99.90;;;14.30;88.38;98688.13;5004340;28;118221;-72
2022/07/15 03:26:54;;;;;;;2.83;1.35;;;13.70;99.90;;;14.31;88.19;98687.00;5017073;28;129955;-72
2022/07/15 03:29:24;;;;;;;3.72;1.35;;;13.70;99.90;;;14.34;88.22;98673.41;5003237;28;128495;-74
2022/07/15 03:31:53;;;;;;;6.20;1.90;;;13.70;99.90;;;14.38;87.60;98677.03;5000542;28;119297;-74
2022/07/15 03:34:26;;;;;;;3.42;1.50;;;13.70;99.90;;;14.42;87.27;98666.16;5004165;28;119000;-73
2022/07/15 03:36:55;;;;;;;7.10;2.05;;;13.70;99.90;;;14.42;87.01;98665.38;5000096;28;129941;-75
2022/07/15 03:39:24;;;;;;;6.68;1.95;;;13.70;99.90;;;14.45;86.97;98664.69;5020138;28;129188;-75
2022/07/15 03:41:53;;;;;;;5.80;2.20;;;13.70;99.90;;;14.46;87.04;98666.25;5018084;28;120685;-74
2022/07/15 03:44:22;;;;;;;9.18;1.92;;;13.70;99.90;;;14.45;87.12;98670.13;5004008;28;121710;-74
2022/07/15 03:46:51;;;;;;;5.65;2.00;;;13.60;99.90;;;14.48;87.18;98666.69;5000007;28;130465;-74
2022/07/15 03:49:20;;;;;;;7.63;2.03;;;13.70;99.90;;;14.54;87.00;98666.03;5003199;28;129184;-74
2022/07/15 03:51:49;;;;;;;6.68;1.98;;;13.70;99.90;;;14.54;86.88;98665.25;5002497;28;119403;-75
2022/07/15 03:54:17;;;;;;;6.97;2.10;;;13.70;99.90;;;14.58;87.24;98655.19;5002006;28;119370;-74
2022/07/15 03:56:47;;;;;;;5.13;1.63;;;13.70;99.90;;;14.67;86.36;98666.72;4986203;28;129340;-74
2022/07/15 03:59:20;;;;;;;6.50;1.65;;;13.70;99.90;;;14.66;85.65;98647.97;5001416;28;129309;-74
2022/07/15 04:01:49;;;;;;;7.30;1.95;;;13.70;99.90;;;14.66;86.03;98648.78;5003540;28;119199;-74
2022/07/15 04:04:18;;;;;;;9.57;1.80;;;13.70;99.90;;;14.73;86.22;98650.84;4986594;28;119163;-73
2022/07/15 04:06:48;;;;;;;6.90;1.80;;;13.80;99.90;;;14.85;86.01;98650.69;5003546;28;104933;-73
2022/07/15 04:09:18;;;;;;;6.45;1.98;;;13.80;99.90;;;14.82;85.62;98661.53;4999538;28;129569;-72
2022/07/15 04:11:47;;;;;;;9.98;2.35;;;13.80;99.90;;;14.70;86.98;98649.63;4986634;28;119079;-73
2022/07/15 04:14:19;;;;;;;6.18;1.85;;;13.70;99.90;;;14.66;87.16;98665.16;5016993;28;120160;-73
2022/07/15 04:16:48;;;;;;;5.65;1.83;;;13.60;99.90;;;14.60;88.38;98666.59;5000746;28;130638;-74
2022/07/15 04:19:26;;;;;;;5.00;1.60;;;13.70;99.90;;;14.51;89.13;98660.50;5016565;28;130099;-73
2022/07/15 04:21:59;;;;;;;10.10;2.30;;;13.60;99.90;;;14.46;89.55;98658.06;5002636;28;119769;-74
2022/07/15 04:24:28;;;;;;;4.55;1.92;;;13.50;99.90;;;14.49;89.79;98660.06;5003472;28;120209;-73
2022/07/15 04:26:57;;;;;;;5.78;1.83;;;13.60;99.90;;;14.47;90.49;98659.63;5002636;28;129066;-74
2022/07/15 04:29:27;;;;;;;6.32;2.10;;;13.60;99.90;;;14.47;90.75;98662.38;5000503;28;129442;-75
2022/07/15 04:31:55;;;;;;;7.60;1.92;;;13.50;99.90;;;14.49;91.09;98660.06;5001568;28;120802;-74
2022/07/15 04:34:31;;;;;;;9.18;2.10;;;13.60;99.90;;;14.51;91.45;98657.78;4999940;28;122378;-74
2022/07/15 04:37:00;;;;;;;5.20;1.85;;;13.60;99.90;;;14.60;91.67;98663.03;5002317;28;129859;-73
2022/07/15 04:39:30;;;;;;;10.82;2.30;;;13.60;99.90;;;14.57;91.45;98678.19;4999312;28;129761;-74
2022/07/15 04:41:59;;;;;;;7.03;1.80;;;13.60;99.90;;;14.68;92.32;98684.69;4986141;28;119172;-75
2022/07/15 04:44:29;;;;;;;8.13;2.50;;;13.70;99.90;;;14.72;91.32;98674.66;4999511;28;119279;-74
2022/07/15 04:46:58;;;;;;;7.15;2.42;;;13.70;99.90;;;14.71;91.10;98681.25;5016065;28;129816;-74
2022/07/15 04:52:21;;;;;;;9.57;2.07;;;13.70;99.90;;;14.73;90.54;98695.31;5002250;28;119689;-71
2022/07/15 04:54:53;;;;;;;6.07;2.15;;;13.70;99.90;;;14.73;90.43;98692.59;5018763;28;121195;-73
2022/07/15 04:57:22;;;;;;;6.65;2.10;;;13.70;99.90;;;14.77;90.69;98697.34;4999039;28;129970;-75
2022/07/15 04:59:51;;;;;;;11.25;2.20;;;13.70;99.90;;;14.80;90.05;98683.75;5000417;28;130717;-75
2022/07/15 05:02:20;;;;;;;8.02;2.10;;;13.80;99.90;;;14.90;89.36;98690.59;4985371;28;119730;-73
2022/07/15 05:04:50;;;;;;;7.97;2.90;;;13.80;99.90;;;15.03;87.94;98694.75;4999129;28;120832;-74
2022/07/15 05:07:20;;;;;;;5.60;2.03;;;13.90;99.90;;;15.18;87.56;98689.56;4985237;28;129464;-73
2022/07/15 05:09:50;;;;;;;6.43;2.33;;;14.00;99.90;;;15.33;86.26;98685.91;4998904;28;129512;-74
2022/07/15 05:12:19;;;;;;;7.70;2.03;;;14.20;99.90;;;15.54;85.13;98684.75;4985751;28;119216;-73
2022/07/15 05:14:56;;;;;;;7.18;1.90;;;14.30;99.90;;;15.62;83.26;98672.75;4999672;28;119600;-73
2022/07/15 05:17:24;;;;;;;7.95;2.03;;;14.30;99.90;;;15.77;81.89;98677.34;4985607;28;130007;-72
2022/07/15 05:19:54;;;;;;;8.25;2.25;;;14.40;99.90;;;15.90;81.84;98690.81;4997958;28;128736;-71
2022/07/15 05:22:25;;;;;;;7.32;2.38;;;14.50;99.90;;;16.01;81.42;98697.25;4980961;28;122008;-71
2022/07/15 05:24:54;;;;;;;7.68;1.92;;;14.60;99.90;;;16.05;81.38;98705.50;5002078;28;121680;-71
2022/07/15 05:27:23;;;;;;;5.78;2.00;;;14.60;99.90;;;16.04;80.21;98696.50;4968617;28;128814;-71
2022/07/15 05:29:51;;;;;;;5.50;2.03;;;14.50;99.90;;;16.07;80.22;98704.00;4985303;28;129663;-73
2022/07/15 05:32:21;;;;;;;8.10;2.05;;;14.50;99.90;;;16.09;79.65;98693.47;4982599;28;119814;-73
2022/07/15 05:34:50;;;;;;;11.95;3.20;;;14.40;99.90;;;16.18;79.42;98701.41;4985727;28;118498;-75
2022/07/15 05:37:21;;;;;;;7.40;2.20;;;14.50;99.90;;;16.30;79.85;98703.16;4998499;28;130248;-74
2022/07/15 05:39:56;;;;;;;13.57;2.20;;;14.70;99.90;;;16.47;78.84;98702.63;4985622;28;128507;-73
2022/07/15 05:42:40;;;;;;;8.90;2.50;;;14.80;99.90;;;16.61;78.60;98712.16;5001962;28;118474;-73
2022/07/15 05:45:11;;;;;;;13.70;2.22;;;14.80;99.90;;;16.75;77.31;98711.56;5001524;28;118651;-73
2022/07/15 05:47:50;;;;;;;7.28;2.53;;;15.10;99.90;;;16.86;76.97;98702.38;4983544;28;129804;-71
2022/07/15 05:50:22;;;;;;;11.20;2.20;;;15.10;99.90;;;16.94;76.13;98708.72;5001244;28;128694;-72
2022/07/15 05:52:51;;;;;;;9.63;2.45;;;15.10;99.90;;;17.05;76.04;98703.38;4985363;28;118486;-74
2022/07/15 05:55:23;;;;;;;7.88;2.30;;;15.20;99.90;;;17.11;75.39;98693.66;4968135;28;119796;-72
2022/07/15 05:57:52;;;;;;;19.23;3.30;;;15.20;99.90;;;17.07;75.21;98693.59;4981681;28;129845;-73
2022/07/15 06:00:26;;;;;;;11.07;2.50;;;15.20;99.90;;;17.16;76.66;98696.03;4984806;28;128560;-74
2022/07/15 06:02:56;;;;;;;6.63;1.92;;;15.40;99.90;;;17.08;75.66;98708.09;4984886;28;119678;-72
2022/07/15 06:05:28;;;;;;;5.35;1.83;;;15.20;99.90;;;17.05;76.51;98697.88;4986339;28;118624;-75
2022/07/15 06:08:01;;;;;;;7.10;2.35;;;15.30;99.90;;;17.03;76.62;98694.72;5002641;28;129910;-75
2022/07/15 06:10:34;;;;;;;13.07;2.53;;;15.20;99.90;;;17.06;76.94;98702.19;4984955;28;129645;-73
2022/07/15 06:13:02;;;;;;;10.07;2.38;;;15.30;99.90;;;17.13;75.75;98705.03;5003751;28;121697;-74
2022/07/15 06:15:32;;;;;;;5.93;2.08;;;15.40;99.90;;;17.29;74.71;98704.00;5001985;28;121785;-73
2022/07/15 06:18:02;;;;;;;12.05;6.25;;;15.50;99.90;;;17.69;73.73;98707.94;4990488;28;129423;-73
2022/07/15 06:20:34;;;;;;;8.32;2.58;;;15.80;99.90;;;17.83;72.22;98710.78;5000136;28;130107;-72
2022/07/15 06:23:02;;;;;;;17.33;7.45;;;15.80;99.90;;;17.96;73.23;98711.31;5004361;28;119046;-74
2022/07/15 06:25:31;;;;;;;9.88;3.08;;;16.00;99.90;;;18.39;70.26;98716.34;4990760;28;118666;-75
2022/07/15 06:27:59;;;;;;;10.27;3.20;;;16.30;99.90;;;18.32;69.72;98712.38;5022197;28;130271;-74
2022/07/15 06:30:30;;;;;;;9.23;3.53;;;16.40;99.90;;;18.35;69.33;98727.28;4990846;28;128648;-78
2022/07/15 06:32:59;;;;;;;9.45;2.85;;;16.30;99.90;;;18.32;68.79;98723.34;5022379;28;119633;-74
2022/07/15 06:35:30;;;;;;;7.88;2.22;;;16.30;99.90;;;18.49;68.71;98724.59;5024564;28;119000;-73
2022/07/15 06:37:59;;;;;;;9.98;2.40;;;16.40;99.90;;;18.55;69.71;98727.78;5003082;28;129774;-75
2022/07/15 06:40:28;;;;;;;12.98;2.92;;;16.50;99.90;;;18.79;68.06;98728.31;5020976;28;130097;-73
2022/07/15 06:42:57;;;;;;;7.65;2.00;;;16.50;99.90;;;18.89;68.79;98744.09;5017853;28;120342;-77
2022/07/15 06:45:29;;;;;;;9.73;2.50;;;16.80;99.90;;;19.02;68.79;98739.03;5021290;28;119060;-76
2022/07/15 06:47:59;;;;;;;8.00;2.08;;;17.00;99.90;;;19.04;68.13;98734.75;5017345;28;130700;-74
2022/07/15 06:50:30;;;;;;;8.27;2.40;;;16.90;99.90;;;19.15;67.03;98742.22;5007320;28;130643;-74
2022/07/15 06:52:59;;;;;;;11.30;2.47;;;16.60;99.90;;;19.18;68.70;98738.69;5020942;28;119589;-74
2022/07/15 06:55:28;;;;;;;13.07;2.47;;;16.90;99.90;;;19.08;67.42;98739.47;4987863;28;118535;-78
2022/07/15 06:57:59;;;;;;;10.40;2.42;;;16.70;99.90;;;19.25;67.39;98744.22;4983820;28;128751;-75
2022/07/15 07:00:28;;;;;;;8.55;2.10;;;16.60;99.90;;;19.11;67.04;98730.44;5007339;28;130845;-73
2022/07/15 07:02:57;;;;;;;13.25;2.25;;;16.60;99.90;;;19.31;67.19;98737.19;5005878;28;120606;-73
2022/07/15 07:05:27;;;;;;;9.32;2.40;;;16.80;99.90;;;20.08;65.52;98733.34;5003955;28;121363;-75
2022/07/15 07:07:58;;;;;;;12.23;2.70;;;17.30;99.90;;;21.05;61.86;98738.69;5000248;28;130441;-75
2022/07/15 07:10:27;;;;;;;7.22;2.30;;;17.80;99.90;;;21.50;59.83;98736.13;5006675;28;129191;-74
2022/07/15 07:12:56;;;;;;;4.63;1.65;;;18.40;99.90;;;21.74;59.48;98739.13;5021849;28;119811;-74
2022/07/15 07:15:25;;;;;;;7.15;2.20;;;18.90;99.90;;;22.01;58.79;98735.75;5014047;27;119584;-75
2022/07/15 07:17:54;;;;;;;6.60;1.92;;;19.10;99.90;;;22.08;57.85;98730.19;4986814;28;129404;-75
2022/07/15 07:20:22;;;;;;;5.32;1.70;;;19.20;96.10;;;21.70;55.76;98744.63;5007539;28;128690;-71
2022/07/15 07:22:51;;;;;;;9.13;1.85;;;18.10;98.00;;;21.36;56.71;98749.94;5022369;28;119803;-75
2022/07/15 07:25:21;;;;;;;5.35;1.77;;;17.60;99.90;;;21.17;57.83;98740.97;5007560;28;118140;-73
2022/07/15 07:27:50;;;;;;;6.47;1.83;;;18.00;99.90;;;21.19;56.96;98749.66;5020229;28;129798;-74
2022/07/15 07:30:18;;;;;;;10.20;2.10;;;17.80;99.90;;;20.86;57.36;98747.41;5020014;28;130152;-74
2022/07/15 07:32:47;;;;;;;10.20;2.15;;;17.60;99.90;;;20.59;56.40;98745.88;5021378;28;119664;-76
2022/07/15 07:35:15;;;;;;;12.60;2.50;;;17.30;99.90;;;20.82;57.36;98739.94;5021717;28;119440;-75
2022/07/15 07:37:44;;;;;;;6.88;1.83;;;17.60;99.90;;;21.01;55.79;98743.44;5021126;28;130033;-75
2022/07/15 07:40:13;;;;;;;6.60;1.85;;;18.00;93.30;;;20.94;56.50;98743.44;5021415;28;129556;-78
2022/07/15 07:42:43;;;;;;;7.60;1.77;;;18.30;93.20;;;21.05;55.78;98746.16;5021998;28;119661;-73
2022/07/15 07:45:11;;;;;;;5.80;1.88;;;18.30;93.20;;;21.50;54.84;98746.34;5022121;28;119461;-74
2022/07/15 07:47:41;;;;;;;6.55;1.70;;;18.30;93.20;;;21.71;54.19;98745.44;5022846;28;128707;-77
2022/07/15 07:50:11;;;;;;;6.82;1.70;;;18.40;90.20;;;21.22;54.75;98736.25;5006259;28;129422;-76
2022/07/15 07:52:40;;;;;;;10.27;2.13;;;17.70;96.60;;;20.75;56.37;98728.94;5005240;28;120864;-75
2022/07/15 07:55:10;;;;;;;5.15;1.88;;;17.60;99.90;;;20.59;56.79;98731.31;5005472;28;120797;-74
2022/07/15 07:57:50;;;;;;;5.35;1.67;;;17.60;97.00;;;20.21;57.57;98730.97;5005321;28;129552;-76
2022/07/15 08:00:20;;;;;;;5.93;1.70;;;17.70;95.90;;;20.36;56.32;98735.28;5019347;28;129511;-73
2022/07/15 08:02:49;;;;;;;5.53;1.52;;;17.70;93.00;;;20.54;57.21;98727.00;5021282;28;119606;-73
2022/07/15 08:05:18;;;;;;;7.25;1.50;;;17.90;93.10;;;21.25;54.40;98735.44;4992290;28;120383;-74
2022/07/15 08:07:47;;;;;;;8.43;1.55;;;18.40;86.50;;;21.26;54.10;98720.47;5000981;28;128962;-73
2022/07/15 08:10:19;;;;;;;8.57;1.63;;;18.20;84.30;;;20.96;54.21;98724.53;5002956;28;130834;-73
2022/07/15 08:12:49;;;;;;;8.00;1.63;;;18.00;87.00;;;20.90;55.28;98720.63;4985976;28;119217;-73
2022/07/15 08:15:17;;;;;;;9.77;1.98;;;18.10;85.20;;;20.70;54.29;98734.09;5020037;28;120299;-72
2022/07/15 08:17:46;;;;;;;5.97;1.80;;;17.70;85.90;;;21.01;55.16;98729.63;5003961;28;129096;-72
2022/07/15 08:20:14;;;;;;;5.15;1.80;;;18.10;90.40;;;21.14;54.75;98727.22;5005739;28;129080;-75
2022/07/15 08:22:43;;;;;;;4.93;1.40;;;18.50;81.20;;;21.75;52.00;98728.84;5006148;28;118588;-74
2022/07/15 08:25:12;;;;;;;6.90;1.63;;;18.50;72.20;;;21.45;51.35;98733.75;5001516;28;119691;-76
2022/07/15 08:27:41;;;;;;;4.95;1.40;;;18.40;61.40;;;20.78;53.55;98732.88;5023973;27;129679;-74
2022/07/15 08:30:11;;;;;;;4.05;1.40;;;18.00;74.60;;;21.06;52.94;98723.69;5005104;28;129331;-75
2022/07/15 08:32:40;;;;;;;4.97;1.40;;;18.60;59.30;;;21.74;50.16;98717.03;5002779;28;118798;-75
2022/07/15 08:35:09;;;;;;;5.00;1.23;;;18.40;48.70;;;21.23;51.16;98715.75;5006437;28;118149;-75
2022/07/15 08:37:39;;;;;;;5.90;1.70;;;18.00;62.90;;;21.07;52.72;98719.00;5005580;28;129241;-73
2022/07/15 08:40:10;;;;;;;5.60;1.65;;;18.20;67.10;;;21.23;52.59;98710.22;5019957;28;129209;-76
2022/07/15 08:42:42;;;;;;;5.60;1.58;;;18.40;66.20;;;21.10;54.26;98723.66;4984991;28;121675;-77
2022/07/15 08:45:14;;;;;;;5.15;1.40;;;18.30;79.90;;;21.44;52.31;98725.84;5016282;28;121794;-73
2022/07/15 08:47:46;;;;;;;3.65;1.45;;;18.50;58.60;;;21.28;50.59;98726.34;5004885;28;128900;-74
2022/07/15 08:50:18;;;;;;;3.90;1.20;;;18.50;46.00;;;21.52;50.03;98717.16;5020397;28;129327;-74
2022/07/15 08:52:48;;;;;;;4.95;1.40;;;18.70;40.40;;;22.11;52.47;98715.53;5021163;28;119572;-74
2022/07/15 08:55:17;;;;;;;4.38;1.60;;;19.70;55.80;;;21.95;47.45;98709.75;5002837;28;118972;-77
2022/07/15 08:57:47;;;;;;;4.93;1.20;;;19.70;16.60;;;21.76;48.12;98714.63;5019387;28;129824;-72
2022/07/15 09:00:18;;;;;;;6.55;1.30;;;18.80;26.00;;;21.72;49.10;98713.88;5022225;28;129230;-75
2022/07/15 09:02:46;;;;;;;5.93;1.30;;;19.00;30.60;;;21.33;49.27;98703.84;5005349;28;119909;-73
2022/07/15 09:05:26;;;;;;;6.20;1.40;;;18.70;26.70;;;21.93;48.07;98701.09;4989204;28;118078;-74
2022/07/15 09:08:04;;;;;;;5.18;1.20;;;19.50;21.80;;;22.16;46.49;98687.47;5018772;28;130525;-75
2022/07/15 09:10:54;;;;;;;5.85;1.67;;;19.20;15.90;;;22.30;46.09;98692.09;5020027;28;129632;-73
2022/07/15 09:13:30;;;;;;;5.88;1.38;;;19.30;14.90;;;22.43;46.69;98681.28;5000536;28;119297;-74
2022/07/15 09:16:04;;;;;;;5.20;1.30;;;19.30;18.30;;;22.36;45.48;98686.88;5005428;28;118650;-75
2022/07/15 09:18:36;;;;;;;4.57;1.05;;;19.40;12.40;;;22.20;47.92;98688.19;5005744;28;129487;-77
2022/07/15 09:21:14;;;;;;;4.25;1.13;;;19.40;25.70;;;22.05;45.90;98693.09;5019264;28;129524;-74
2022/07/15 09:23:43;;;;;;;7.60;1.42;;;19.50;6.50;;;22.12;46.61;98670.13;5005900;28;118956;-76
2022/07/15 09:26:27;;;;;;;4.97;1.23;;;19.50;10.10;;;22.19;46.65;98686.66;5001359;28;119411;-75
2022/07/15 09:28:57;;;;;;;3.25;0.93;;;19.80;8.40;;;22.25;45.29;98673.94;5019911;28;130401;-76
2022/07/15 09:34:25;;;;;;;7.50;1.65;;;19.80;2.80;;;23.04;44.55;98672.25;4962767;28;122671;-77
2022/07/15 09:36:57;;;;;;;4.88;1.10;;;20.40;1.10;;;23.55;42.35;98672.34;5019985;28;122564;-77
2022/07/15 09:39:26;;;;;;;4.47;1.23;;;20.50;1.00;;;23.62;43.37;98672.25;5020594;28;128580;-76
2022/07/15 09:41:58;;;;;;;4.75;1.25;;;20.40;1.00;;;23.83;44.19;98675.88;5019098;28;129717;-77
2022/07/15 09:44:29;;;;;;;5.47;1.10;;;20.80;1.00;;;23.73;45.18;98682.34;4984762;28;119387;-77
2022/07/15 09:47:03;;;;;;;3.58;1.33;;;21.10;1.00;;;23.92;44.10;98673.38;5016757;28;120084;-77
2022/07/15 09:49:38;;;;;;;4.72;1.38;;;21.30;1.00;;;23.84;42.89;98680.22;5022030;28;130043;-77
2022/07/15 09:52:08;;;;;;;;;;;20.70;1.00;;;23.25;44.37;98673.97;5002233;28;129802;-80
2022/07/15 09:54:40;;;;;;;4.57;1.20;;;20.30;1.00;;;22.77;46.01;98669.44;5004799;28;119641;-76
2022/07/15 09:57:14;;;;;;;5.32;1.40;;;19.70;6.50;;;22.86;47.60;98666.97;5021888;28;119892;-78
2022/07/15 09:59:44;;;;;;;3.42;1.00;;;20.30;11.10;;;23.19;45.99;98667.34;5017152;28;129833;-75
2022/07/15 10:02:14;;;;;;;12.75;1.63;;;20.80;1.00;;;23.74;44.63;98672.84;4988181;28;129153;-76
2022/07/15 10:04:46;;;;;;;7.97;1.77;;;21.10;1.00;;;23.82;42.82;98671.50;5019913;28;120166;-76
2022/07/15 10:07:15;;;;;;;4.78;1.50;;;20.40;1.00;;;23.30;42.05;98673.50;5019191;28;119593;-79
2022/07/15 10:09:45;;;;;;;2.53;0.95;;;20.10;1.00;;;23.18;43.86;98657.47;4996805;28;130431;-78
2022/07/15 10:12:20;;;;;;;3.10;1.20;;;20.60;1.00;;;23.66;42.29;98667.41;5004351;28;129290;-76
2022/07/15 10:15:12;;;;;;;5.43;1.50;;;20.80;1.00;;;23.39;41.55;98669.41;5019649;28;119583;-73
2022/07/15 10:18:06;;;;;;;4.95;1.40;;;20.50;1.00;;;23.43;42.79;98664.63;5019866;28;119825;-76
2022/07/15 10:21:00;;;;;;;6.65;1.30;;;20.60;1.00;;;23.93;40.44;98669.38;5019645;28;129777;-75
2022/07/15 10:24:01;;;;;;;4.28;1.20;;;21.00;1.00;;;24.39;40.66;98662.22;5000992;28;129045;-76
2022/07/15 10:26:45;;;;;;;4.97;1.30;;;20.90;1.00;;;24.15;41.03;98652.38;5003153;28;121719;-74
2022/07/15 10:29:14;;;;;;;5.65;1.30;;;20.20;1.00;;;24.13;41.62;98663.09;5004137;28;121319;-77
2022/07/15 10:31:44;;;;;;;5.32;1.17;;;20.70;1.00;;;23.68;43.97;98656.72;5020144;28;129752;-77
2022/07/15 10:34:23;;;;;;;6.03;1.23;;;20.80;1.00;;;23.10;42.44;98658.78;4999509;28;130078;-75
2022/07/15 10:37:13;;;;;;;7.65;1.20;;;20.00;1.00;;;22.44;43.54;98653.25;5019017;28;120152;-76